createdAt,value
2023-03-22T00:01:41.631Z,12.60
2023-03-22T00:04:09.455Z,10.70
2023-03-22T00:06:37.261Z,9.35
2023-03-22T00:09:05.088Z,10.73
2023-03-22T00:11:32.832Z,10.98
2023-03-22T00:14:00.787Z,9.77
2023-03-22T00:16:30.261Z,12.63
2023-03-22T00:18:58.012Z,11.30
2023-03-22T00:21:26.020Z,9.85
2023-03-22T00:23:53.751Z,12.43
2023-03-22T00:26:21.699Z,11.80
2023-03-22T00:28:49.426Z,12.57
2023-03-22T00:31:17.243Z,8.43
2023-03-22T00:33:46.364Z,10.15
2023-03-22T00:36:14.431Z,12.70
2023-03-22T00:38:43.864Z,10.32
2023-03-22T00:41:13.076Z,11.00
2023-03-22T00:43:41.278Z,10.45
2023-03-22T00:46:09.904Z,11.00
2023-03-22T00:48:37.745Z,11.40
2023-03-22T00:51:07.483Z,12.80
2023-03-22T00:53:36.358Z,10.35
2023-03-22T00:56:04.531Z,13.68
2023-03-22T00:58:32.276Z,9.88
2023-03-22T01:01:00.063Z,12.48
2023-03-22T01:03:28.062Z,10.27
2023-03-22T01:05:56.408Z,9.15
2023-03-22T01:08:25.767Z,15.82
2023-03-22T01:10:53.493Z,12.60
2023-03-22T01:13:21.616Z,14.15
2023-03-22T01:15:51.128Z,12.38
2023-03-22T01:18:19.223Z,14.30
2023-03-22T01:20:46.994Z,11.90
2023-03-22T01:23:15.038Z,16.35
2023-03-22T01:25:44.177Z,11.65
2023-03-22T01:28:12.196Z,13.48
2023-03-22T01:30:40.472Z,12.20
2023-03-22T01:33:08.624Z,12.18
2023-03-22T01:35:37.120Z,12.85
2023-03-22T01:38:05.856Z,11.57
2023-03-22T01:40:33.628Z,12.07
2023-03-22T01:43:02.749Z,11.93
2023-03-22T01:45:35.954Z,14.57
2023-03-22T01:48:06.168Z,15.38
2023-03-22T01:50:34.147Z,15.65
2023-03-22T01:53:08.004Z,13.55
2023-03-22T01:55:36.833Z,16.23
2023-03-22T01:58:05.999Z,15.32
2023-03-22T02:00:34.648Z,12.02
2023-03-22T02:03:02.895Z,11.63
2023-03-22T02:05:31.024Z,10.25
2023-03-22T02:07:58.799Z,11.60
2023-03-22T02:10:27.886Z,9.30
2023-03-22T02:13:02.923Z,10.02
2023-03-22T02:15:34.457Z,10.10
2023-03-22T02:18:07.685Z,12.60
2023-03-22T02:20:47.103Z,10.68
2023-03-22T02:23:19.818Z,11.23
2023-03-22T02:25:54.719Z,16.98
2023-03-22T02:28:26.866Z,11.68
2023-03-22T02:31:18.488Z,12.30
2023-03-22T02:33:58.824Z,13.07
2023-03-22T02:36:42.944Z,15.68
2023-03-22T02:39:23.463Z,11.75
2023-03-22T02:42:03.867Z,9.55
2023-03-22T02:44:35.812Z,13.90
2023-03-22T02:47:05.296Z,9.38
2023-03-22T02:49:36.176Z,8.48
2023-03-22T02:52:05.640Z,10.13
2023-03-22T02:54:39.354Z,12.02
2023-03-22T02:57:09.944Z,7.13
2023-03-22T02:59:39.514Z,6.65
2023-03-22T03:02:09.678Z,6.75
2023-03-22T03:04:41.085Z,7.10
2023-03-22T03:07:10.755Z,9.32
2023-03-22T03:09:41.751Z,9.88
2023-03-22T03:12:10.726Z,10.07
2023-03-22T03:14:38.725Z,9.20
2023-03-22T03:17:09.702Z,7.68
2023-03-22T03:19:42.355Z,9.63
2023-03-22T03:22:17.354Z,9.75
2023-03-22T03:24:49.818Z,8.02
2023-03-22T03:27:21.719Z,7.63
2023-03-22T03:29:50.914Z,9.02
2023-03-22T03:32:22.541Z,9.45
2023-03-22T03:34:52.926Z,8.43
2023-03-22T03:37:22.991Z,9.55
2023-03-22T03:39:55.171Z,8.80
2023-03-22T03:42:24.978Z,10.30
2023-03-22T03:44:52.985Z,13.48
2023-03-22T03:47:20.951Z,13.73
2023-03-22T03:49:48.777Z,13.73
2023-03-22T03:52:16.523Z,10.40
2023-03-22T03:54:45.982Z,14.95
2023-03-22T03:57:16.952Z,15.30
2023-03-22T03:59:45.018Z,16.92
2023-03-22T04:02:12.920Z,18.45
2023-03-22T04:04:40.993Z,14.23
2023-03-22T04:07:09.164Z,14.43
2023-03-22T04:09:37.986Z,14.55
2023-03-22T04:12:06.060Z,14.50
2023-03-22T04:14:35.676Z,8.30
2023-03-22T04:17:03.468Z,7.60
2023-03-22T04:19:32.520Z,10.82
2023-03-22T04:22:00.468Z,9.68
2023-03-22T04:24:28.224Z,9.73
2023-03-22T04:26:56.187Z,8.88
2023-03-22T04:29:25.061Z,9.88
2023-03-22T04:31:54.239Z,8.60
2023-03-22T04:34:22.234Z,7.80
2023-03-22T04:36:50.683Z,9.82
2023-03-22T04:39:19.373Z,11.52
2023-03-22T04:41:47.188Z,13.18
2023-03-22T04:44:15.009Z,15.55
2023-03-22T04:46:44.459Z,11.75
2023-03-22T04:49:13.971Z,13.15
2023-03-22T04:51:41.969Z,9.25
2023-03-22T04:54:09.790Z,10.02
2023-03-22T04:56:37.521Z,15.10
2023-03-22T04:59:05.839Z,11.55
2023-03-22T05:01:35.520Z,12.15
2023-03-22T05:04:03.606Z,11.70
2023-03-22T05:06:33.582Z,13.52
2023-03-22T05:09:01.883Z,11.32
2023-03-22T05:11:30.023Z,11.75
2023-03-22T05:13:58.710Z,18.17
2023-03-22T05:16:26.679Z,13.20
2023-03-22T05:18:54.850Z,13.90
2023-03-22T05:21:28.066Z,17.80
2023-03-22T05:23:58.157Z,16.08
2023-03-22T05:26:26.678Z,14.35
2023-03-22T05:28:54.768Z,13.95
2023-03-22T05:31:23.323Z,14.35
2023-03-22T05:33:51.804Z,12.18
2023-03-22T05:36:20.382Z,12.55
2023-03-22T05:38:48.197Z,13.82
2023-03-22T05:41:17.298Z,17.38
2023-03-22T05:43:45.388Z,12.65
2023-03-22T05:46:13.762Z,13.77
2023-03-22T05:48:42.008Z,15.73
2023-03-22T05:51:10.376Z,15.65
2023-03-22T05:53:38.152Z,15.13
2023-03-22T05:56:09.922Z,13.52
2023-03-22T05:58:39.969Z,16.35
2023-03-22T06:01:08.563Z,18.88
2023-03-22T06:03:36.438Z,17.65
2023-03-22T06:06:06.696Z,14.10
2023-03-22T06:08:35.176Z,18.13
2023-03-22T06:11:02.947Z,17.85
2023-03-22T06:13:33.210Z,16.17
2023-03-22T06:16:03.099Z,23.65
2023-03-22T06:18:31.657Z,17.77
2023-03-22T06:21:00.502Z,15.23
2023-03-22T06:23:28.826Z,16.42
2023-03-22T06:25:56.793Z,16.17
2023-03-22T06:28:26.564Z,13.38
2023-03-22T06:30:54.373Z,17.10
2023-03-22T06:33:23.723Z,12.85
2023-03-22T06:35:51.482Z,14.52
2023-03-22T06:38:19.580Z,17.88
2023-03-22T06:40:47.428Z,16.73
2023-03-22T06:43:15.602Z,18.45
2023-03-22T06:45:43.378Z,18.45
2023-03-22T06:48:11.219Z,16.15
2023-03-22T06:50:44.096Z,19.40
2023-03-22T06:55:40.574Z,13.90
2023-03-22T06:58:08.614Z,19.60
2023-03-22T07:00:36.386Z,17.88
2023-03-22T07:03:04.655Z,20.90
2023-03-22T07:05:32.910Z,18.95
2023-03-22T07:08:02.182Z,14.93
2023-03-22T07:10:30.199Z,17.15
2023-03-22T07:12:58.388Z,15.25
2023-03-22T07:15:26.153Z,12.90
2023-03-22T07:17:54.131Z,14.82
2023-03-22T07:20:21.958Z,19.35
2023-03-22T07:22:51.083Z,26.08
2023-03-22T07:25:20.416Z,26.27
2023-03-22T07:27:48.422Z,20.73
2023-03-22T07:30:16.232Z,20.15
2023-03-22T07:32:44.040Z,22.15
2023-03-22T07:35:12.394Z,17.73
2023-03-22T07:37:40.510Z,19.85
2023-03-22T07:40:09.010Z,23.33
2023-03-22T07:42:38.136Z,16.23
2023-03-22T07:45:06.747Z,16.00
2023-03-22T07:47:41.092Z,18.90
2023-03-22T07:50:11.732Z,18.35
2023-03-22T07:52:39.899Z,14.13
2023-03-22T07:55:08.185Z,12.15
2023-03-22T07:57:36.259Z,17.02
2023-03-22T08:00:07.003Z,19.58
2023-03-22T08:02:34.847Z,17.38
2023-03-22T08:05:02.631Z,14.40
2023-03-22T08:07:31.804Z,13.32
2023-03-22T08:09:59.572Z,16.23
2023-03-22T08:12:28.698Z,12.23
2023-03-22T08:14:56.495Z,15.20
2023-03-22T08:17:26.397Z,13.20
2023-03-22T08:20:20.691Z,13.82
2023-03-22T08:22:48.477Z,15.68
2023-03-22T08:25:16.336Z,15.73
2023-03-22T08:27:44.118Z,15.23
2023-03-22T08:30:12.748Z,16.73
2023-03-22T08:32:41.982Z,18.88
2023-03-22T08:35:13.073Z,13.82
2023-03-22T08:37:41.494Z,15.23
2023-03-22T08:40:10.337Z,12.75
2023-03-22T08:42:38.545Z,15.15
2023-03-22T08:45:07.364Z,13.38
2023-03-22T08:47:35.458Z,13.38
2023-03-22T08:50:05.277Z,12.48
2023-03-22T08:52:33.068Z,16.63
2023-03-22T08:55:01.131Z,15.18
2023-03-22T08:57:29.495Z,12.65
2023-03-22T08:59:57.729Z,14.45
2023-03-22T09:02:25.870Z,12.18
2023-03-22T09:04:54.027Z,13.35
2023-03-22T09:07:24.277Z,13.20
2023-03-22T09:09:52.239Z,12.65
2023-03-22T09:12:20.012Z,12.35
2023-03-22T09:14:49.335Z,11.68
2023-03-22T09:17:20.646Z,11.20
2023-03-22T09:19:49.678Z,11.93
2023-03-22T09:22:17.492Z,10.73
2023-03-22T09:24:49.375Z,12.75
2023-03-22T09:27:17.240Z,14.80
2023-03-22T09:29:45.015Z,14.55
2023-03-22T09:32:12.750Z,13.85
2023-03-22T09:34:40.899Z,11.13
2023-03-22T09:37:08.658Z,12.32
2023-03-22T09:39:38.550Z,8.90
2023-03-22T09:42:08.798Z,10.60
2023-03-22T09:44:40.222Z,14.48
2023-03-22T09:47:09.255Z,8.32
2023-03-22T09:49:52.524Z,12.45
2023-03-22T09:52:20.987Z,13.95
2023-03-22T09:54:50.426Z,12.52
2023-03-22T09:57:24.488Z,8.88
2023-03-22T09:59:58.326Z,8.52
2023-03-22T10:02:36.282Z,12.90
2023-03-22T10:05:10.260Z,8.00
2023-03-22T10:07:42.706Z,9.50
2023-03-22T10:10:17.825Z,6.35
2023-03-22T10:12:51.661Z,11.48
2023-03-22T10:15:20.903Z,7.43
2023-03-22T10:17:51.925Z,9.32
2023-03-22T10:20:24.555Z,8.20
2023-03-22T10:22:53.964Z,8.82
2023-03-22T10:25:23.126Z,5.07
2023-03-22T10:27:52.594Z,7.93
2023-03-22T10:30:21.697Z,5.35
2023-03-22T10:32:57.792Z,6.82
2023-03-22T10:35:26.491Z,3.80
2023-03-22T10:37:55.698Z,5.18
2023-03-22T10:40:25.539Z,5.13
2023-03-22T10:42:55.997Z,4.78
2023-03-22T10:45:25.547Z,3.67
2023-03-22T10:47:57.871Z,4.60
2023-03-22T10:50:28.696Z,4.57
2023-03-22T10:52:58.652Z,6.68
2023-03-22T10:55:26.912Z,4.75
2023-03-22T10:57:58.574Z,4.95
2023-03-22T11:00:28.754Z,5.32
2023-03-22T11:02:59.411Z,5.13
2023-03-22T11:05:28.761Z,4.68
2023-03-22T11:08:00.655Z,4.30
2023-03-22T11:10:29.963Z,8.45
2023-03-22T11:13:12.285Z,3.55
2023-03-22T11:15:41.546Z,6.88
2023-03-22T11:18:12.273Z,5.68
2023-03-22T11:20:41.324Z,4.22
2023-03-22T11:23:13.259Z,3.80
2023-03-22T11:25:46.209Z,4.15
2023-03-22T11:28:19.872Z,2.75
2023-03-22T11:31:05.624Z,4.22
2023-03-22T11:33:33.603Z,5.20
2023-03-22T11:36:02.552Z,8.18
2023-03-22T11:38:31.620Z,6.15
2023-03-22T11:41:01.111Z,4.45
2023-03-22T11:43:33.521Z,7.25
2023-03-22T11:46:01.591Z,4.85
2023-03-22T11:48:31.656Z,4.10
2023-03-22T11:51:04.889Z,7.18
2023-03-22T11:56:00.857Z,2.55
2023-03-22T11:58:31.596Z,5.80
2023-03-22T12:01:01.590Z,4.57
2023-03-22T12:03:32.069Z,4.07
2023-03-22T12:06:02.992Z,6.53
2023-03-22T12:08:36.422Z,3.10
2023-03-22T12:11:06.121Z,3.83
2023-03-22T12:13:38.972Z,5.55
2023-03-22T12:16:07.679Z,3.33
2023-03-22T12:18:39.346Z,3.45
2023-03-22T12:21:07.130Z,5.25
2023-03-22T12:23:36.260Z,5.80
2023-03-22T12:26:05.894Z,3.05
2023-03-22T12:28:38.625Z,3.72
2023-03-22T12:31:08.051Z,5.05
2023-03-22T12:33:39.158Z,3.33
2023-03-22T12:36:07.827Z,6.50
2023-03-22T12:38:39.309Z,3.75
2023-03-22T12:41:10.278Z,4.05
2023-03-22T12:43:47.708Z,3.88
2023-03-22T12:46:17.726Z,3.75
2023-03-22T12:48:49.056Z,3.35
2023-03-22T12:51:16.835Z,2.28
2023-03-22T12:53:46.512Z,7.55
2023-03-22T12:56:15.671Z,7.13
2023-03-22T12:58:47.989Z,2.80
2023-03-22T13:01:22.001Z,5.20
2023-03-22T13:03:52.084Z,3.20
2023-03-22T13:06:31.057Z,5.78
2023-03-22T13:09:03.389Z,6.50
2023-03-22T13:11:31.186Z,5.82
2023-03-22T13:14:00.503Z,7.20
2023-03-22T13:16:48.547Z,3.40
2023-03-22T13:19:28.861Z,4.45
2023-03-22T13:22:15.860Z,4.45
2023-03-22T13:24:59.288Z,7.20
2023-03-22T13:27:35.446Z,4.82
2023-03-22T13:30:10.500Z,3.90
2023-03-22T13:32:39.798Z,6.20
2023-03-22T13:35:21.757Z,4.20
2023-03-22T13:37:50.397Z,4.00
2023-03-22T13:40:27.206Z,4.65
2023-03-22T13:42:55.191Z,3.33
2023-03-22T13:45:32.542Z,2.38
2023-03-22T13:48:04.914Z,2.35
2023-03-22T13:57:54.940Z,3.72
2023-03-22T14:00:49.283Z,3.33
2023-03-22T14:03:21.351Z,1.92
2023-03-22T14:05:49.579Z,6.33
2023-03-22T14:08:22.735Z,1.65
2023-03-22T14:13:21.839Z,3.30
2023-03-22T14:15:52.694Z,4.78
2023-03-22T14:18:22.235Z,3.95
